createdAt,value
2022-10-18T00:00:02.921Z,84.21
2022-10-18T00:01:02.890Z,84.17
2022-10-18T00:02:02.936Z,84.51
2022-10-18T00:03:02.871Z,84.51
2022-10-18T00:04:02.867Z,84.51
2022-10-18T00:05:02.926Z,84.61
2022-10-18T00:06:02.843Z,84.21
2022-10-18T00:07:02.837Z,84.21
2022-10-18T00:08:02.840Z,84.31
2022-10-18T00:09:02.839Z,85.22
2022-10-18T00:10:02.813Z,85.56
2022-10-18T00:11:02.840Z,86.57
2022-10-18T00:12:02.801Z,86.97
2022-10-18T00:13:02.808Z,86.77
2022-10-18T00:14:02.871Z,86.87
2022-10-18T00:15:02.788Z,87.07
2022-10-18T00:16:02.800Z,86.87
2022-10-18T00:17:02.780Z,86.57
2022-10-18T00:18:02.768Z,86.46
2022-10-18T00:19:02.752Z,86.77
2022-10-18T00:20:02.778Z,86.81
2022-10-18T00:21:02.763Z,87.17
2022-10-18T00:22:02.740Z,87.17
2022-10-18T00:23:02.753Z,86.72
2022-10-18T00:24:02.735Z,86.12
2022-10-18T00:25:02.723Z,85.72
2022-10-18T00:26:02.732Z,85.82
2022-10-18T00:27:02.728Z,86.08
2022-10-18T00:28:02.696Z,85.48
2022-10-18T00:29:02.779Z,85.08
2022-10-18T00:30:02.686Z,84.27
2022-10-18T00:31:02.692Z,84.03
2022-10-18T00:32:02.674Z,84.13
2022-10-18T00:33:02.674Z,83.93
2022-10-18T00:34:02.674Z,84.47
2022-10-18T00:35:02.650Z,84.61
2022-10-18T00:36:02.654Z,86.36
2022-10-18T00:37:02.630Z,86.81
2022-10-18T00:38:02.637Z,88.16
2022-10-18T00:39:02.630Z,88.96
2022-10-18T00:40:02.627Z,88.66
2022-10-18T00:41:02.612Z,89.26
2022-10-18T00:42:02.635Z,89.17
2022-10-18T00:43:02.587Z,89.12
2022-10-18T00:44:03.590Z,88.62
2022-10-18T00:45:02.604Z,88.62
2022-10-18T00:46:02.583Z,88.66
2022-10-18T00:47:02.582Z,88.56
2022-10-18T00:48:02.580Z,88.86
2022-10-18T00:49:02.567Z,89.12
2022-10-18T00:50:02.559Z,88.62
2022-10-18T00:51:02.550Z,88.62
2022-10-18T00:52:02.549Z,89.08
2022-10-18T00:53:02.539Z,88.98
2022-10-18T00:54:02.534Z,89.08
2022-10-18T00:55:02.539Z,87.98
2022-10-18T00:56:02.509Z,87.93
2022-10-18T00:57:02.525Z,87.93
2022-10-18T00:58:02.551Z,87.47
2022-10-18T00:59:02.486Z,87.33
2022-10-18T01:00:02.494Z,87.53
2022-10-18T01:01:02.478Z,86.83
2022-10-18T01:02:02.518Z,87.23
2022-10-18T01:03:02.492Z,87.67
2022-10-18T01:04:02.480Z,87.73
2022-10-18T01:05:02.463Z,87.73
2022-10-18T01:06:02.450Z,87.33
2022-10-18T01:07:02.432Z,86.93
2022-10-18T01:08:02.448Z,87.77
2022-10-18T01:09:02.427Z,87.98
2022-10-18T01:10:02.435Z,89.03
2022-10-18T01:11:02.421Z,88.62
2022-10-18T01:12:02.421Z,89.26
2022-10-18T01:13:02.410Z,89.53
2022-10-18T01:14:02.413Z,89.23
2022-10-18T01:15:02.394Z,88.58
2022-10-18T01:16:02.382Z,88.68
2022-10-18T01:17:02.371Z,88.88
2022-10-18T01:18:02.363Z,88.18
2022-10-18T01:19:02.420Z,87.83
2022-10-18T01:20:02.359Z,88.03
2022-10-18T01:21:02.333Z,87.93
2022-10-18T01:22:02.360Z,87.93
2022-10-18T01:23:02.332Z,87.93
2022-10-18T01:24:02.326Z,87.83
2022-10-18T01:26:02.437Z,87.63
2022-10-18T01:27:02.317Z,87.08
2022-10-18T01:28:02.327Z,86.79
2022-10-18T01:29:02.371Z,86.48
2022-10-18T01:30:02.273Z,86.58
2022-10-18T01:31:02.274Z,86.38
2022-10-18T01:32:02.298Z,85.94
2022-10-18T01:33:02.270Z,86.85
2022-10-18T01:35:03.275Z,85.80
2022-10-18T01:36:02.317Z,85.44
2022-10-18T01:37:02.249Z,85.39
2022-10-18T01:38:02.238Z,85.60
2022-10-18T01:39:02.234Z,85.74
2022-10-18T01:40:02.223Z,86.00
2022-10-18T01:41:02.225Z,85.30
2022-10-18T01:42:02.330Z,85.19
2022-10-18T01:43:02.250Z,84.89
2022-10-18T01:44:02.200Z,84.89
2022-10-18T01:45:02.211Z,84.85
2022-10-18T01:46:02.193Z,85.14
2022-10-18T01:47:02.162Z,85.74
2022-10-18T01:48:02.165Z,85.64
2022-10-18T01:49:02.182Z,85.84
2022-10-18T01:50:02.145Z,85.94
2022-10-18T01:51:02.193Z,86.34
2022-10-18T01:52:02.253Z,86.44
2022-10-18T01:53:02.141Z,86.68
2022-10-18T01:54:02.162Z,86.74
2022-10-18T01:55:02.114Z,86.44
2022-10-18T01:56:02.105Z,86.48
2022-10-18T01:57:02.118Z,86.54
2022-10-18T01:58:02.127Z,86.38
2022-10-18T01:59:02.102Z,86.99
2022-10-18T02:00:02.111Z,86.88
2022-10-18T02:01:02.168Z,87.33
2022-10-18T02:02:02.075Z,87.98
2022-10-18T02:03:02.089Z,88.03
2022-10-18T02:04:02.053Z,88.03
2022-10-18T02:05:02.058Z,87.93
2022-10-18T02:06:02.053Z,88.13
2022-10-18T02:07:02.036Z,88.03
2022-10-18T02:08:18.852Z,87.93
2022-10-18T02:09:04.022Z,87.69
2022-10-18T02:10:02.111Z,87.79
2022-10-18T02:11:02.025Z,87.29
2022-10-18T02:12:01.999Z,86.79
2022-10-18T02:13:01.990Z,86.52
2022-10-18T02:14:01.989Z,87.23
2022-10-18T02:15:01.981Z,87.17
2022-10-18T02:16:01.990Z,87.87
2022-10-18T02:17:01.967Z,87.82
2022-10-18T02:18:01.947Z,89.12
2022-10-18T02:19:01.964Z,89.26
2022-10-18T02:20:01.945Z,89.32
2022-10-18T02:21:01.933Z,88.68
2022-10-18T02:22:01.945Z,88.07
2022-10-18T02:23:01.931Z,87.43
2022-10-18T02:24:01.921Z,87.02
2022-10-18T02:25:01.913Z,86.43
2022-10-18T02:26:01.908Z,86.48
2022-10-18T02:27:01.910Z,86.52
2022-10-18T02:28:01.882Z,87.02
2022-10-18T02:29:02.913Z,87.37
2022-10-18T02:30:01.911Z,88.12
2022-10-18T02:31:01.890Z,88.28
2022-10-18T02:32:01.873Z,88.03
2022-10-18T02:33:01.887Z,87.23
2022-10-18T02:34:01.881Z,87.02
2022-10-18T02:35:01.831Z,87.17
2022-10-18T02:36:02.842Z,86.97
2022-10-18T02:37:01.870Z,87.57
2022-10-18T02:38:01.874Z,87.77
2022-10-18T02:39:01.822Z,87.27
2022-10-18T02:40:01.804Z,87.02
2022-10-18T02:41:01.809Z,86.32
2022-10-18T02:42:01.795Z,86.52
2022-10-18T02:43:01.825Z,86.48
2022-10-18T02:44:01.795Z,85.48
2022-10-18T02:45:01.820Z,85.68
2022-10-18T02:46:01.769Z,86.02
2022-10-18T02:47:01.767Z,86.43
2022-10-18T02:48:01.806Z,86.32
2022-10-18T02:49:01.750Z,86.52
2022-10-18T02:50:01.806Z,86.93
2022-10-18T02:51:01.739Z,87.17
2022-10-18T02:52:01.742Z,87.23
2022-10-18T02:53:01.718Z,86.57
2022-10-18T02:54:01.743Z,86.93
2022-10-18T02:55:01.758Z,86.32
2022-10-18T02:56:01.701Z,86.83
2022-10-18T02:57:01.691Z,87.23
2022-10-18T02:58:01.695Z,86.63
2022-10-18T02:59:01.705Z,86.32
2022-10-18T03:00:01.694Z,85.58
2022-10-18T03:01:01.714Z,85.78
2022-10-18T03:02:01.682Z,84.97
2022-10-18T03:03:01.674Z,85.68
2022-10-18T03:04:01.664Z,85.53
2022-10-18T03:05:01.682Z,85.03
2022-10-18T03:06:01.640Z,85.14
2022-10-18T03:07:01.638Z,84.74
2022-10-18T03:08:01.638Z,84.53
2022-10-18T03:09:01.630Z,83.99
2022-10-18T03:10:01.633Z,84.47
2022-10-18T03:11:01.610Z,84.88
2022-10-18T03:12:01.613Z,85.14
2022-10-18T03:13:01.595Z,85.24
2022-10-18T03:14:01.590Z,84.74
2022-10-18T03:15:01.605Z,84.99
2022-10-18T03:16:01.606Z,84.33
2022-10-18T03:17:01.584Z,83.73
2022-10-18T03:18:01.586Z,84.03
2022-10-18T03:19:01.571Z,84.19
2022-10-18T03:20:01.559Z,83.73
2022-10-18T03:21:01.561Z,85.11
2022-10-18T03:22:01.581Z,86.57
2022-10-18T03:23:01.546Z,86.63
2022-10-18T03:24:02.313Z,86.32
2022-10-18T03:25:01.539Z,86.32
2022-10-18T03:26:01.521Z,85.72
2022-10-18T03:27:01.534Z,86.08
2022-10-18T03:28:01.510Z,84.97
2022-10-18T03:29:01.575Z,84.61
2022-10-18T03:30:01.500Z,85.92
2022-10-18T03:31:01.491Z,86.16
2022-10-18T03:32:01.512Z,85.62
2022-10-18T03:33:01.467Z,84.81
2022-10-18T03:34:01.466Z,84.61
2022-10-18T03:35:01.482Z,85.31
2022-10-18T03:36:01.459Z,84.61
2022-10-18T03:37:04.666Z,84.21
2022-10-18T03:38:01.451Z,84.71
2022-10-18T03:39:01.430Z,85.02
2022-10-18T03:40:01.435Z,84.81
2022-10-18T03:41:01.417Z,84.11
2022-10-18T03:42:01.432Z,83.61
2022-10-18T03:43:01.433Z,83.37
2022-10-18T03:44:01.407Z,83.37
2022-10-18T03:45:01.424Z,82.56
2022-10-18T03:46:01.387Z,82.16
2022-10-18T03:47:02.298Z,83.47
2022-10-18T03:48:01.371Z,83.61
2022-10-18T03:49:01.383Z,83.84
2022-10-18T03:50:01.363Z,85.05
2022-10-18T03:51:01.362Z,84.59
2022-10-18T03:52:01.361Z,85.80
2022-10-18T03:53:01.343Z,85.80
2022-10-18T03:54:01.367Z,85.40
2022-10-18T03:55:01.366Z,85.05
2022-10-18T03:56:01.335Z,84.49
2022-10-18T03:57:01.314Z,85.70
2022-10-18T03:58:01.314Z,86.30
2022-10-18T03:59:01.329Z,85.86
2022-10-18T04:00:01.306Z,86.06
2022-10-18T04:01:01.294Z,85.66
2022-10-18T04:02:01.330Z,85.56
2022-10-18T04:03:01.284Z,86.12
2022-10-18T04:04:01.270Z,86.16
2022-10-18T04:05:01.309Z,85.56
2022-10-18T04:06:01.270Z,85.66
2022-10-18T04:07:01.277Z,85.96
2022-10-18T04:08:01.261Z,85.36
2022-10-18T04:09:03.180Z,85.96
2022-10-18T04:10:01.242Z,85.86
2022-10-18T04:11:01.256Z,85.76
2022-10-18T04:12:01.214Z,85.25
2022-10-18T04:13:01.250Z,84.91
2022-10-18T04:14:01.210Z,85.52
2022-10-18T04:15:01.262Z,85.11
2022-10-18T04:16:01.198Z,85.05
2022-10-18T04:17:01.182Z,86.16
2022-10-18T04:18:01.202Z,85.90
2022-10-18T04:19:01.167Z,86.41
2022-10-18T04:20:01.173Z,86.16
2022-10-18T04:21:01.182Z,85.56
2022-10-18T04:22:01.207Z,86.61
2022-10-18T04:23:01.167Z,86.61
2022-10-18T04:24:01.165Z,86.36
2022-10-18T04:25:01.134Z,86.71
2022-10-18T04:26:01.130Z,87.01
2022-10-18T04:27:01.122Z,86.81
2022-10-18T04:28:14.254Z,86.91
2022-10-18T04:29:01.151Z,86.91
2022-10-18T04:30:01.098Z,86.41
2022-10-18T04:31:02.305Z,86.41
2022-10-18T04:32:01.805Z,86.16
2022-10-18T04:33:01.099Z,86.00
2022-10-18T04:34:01.090Z,86.16
2022-10-18T04:35:01.073Z,85.96
2022-10-18T04:36:01.059Z,85.76
2022-10-18T04:37:01.072Z,85.96
2022-10-18T04:38:02.825Z,86.16
2022-10-18T04:39:01.059Z,86.06
2022-10-18T04:40:01.111Z,85.72
2022-10-18T04:41:01.025Z,85.92
2022-10-18T04:42:01.042Z,85.22
2022-10-18T04:43:01.022Z,85.31
2022-10-18T04:44:01.018Z,84.91
2022-10-18T04:45:01.404Z,85.52
2022-10-18T04:46:00.983Z,85.92
2022-10-18T04:47:00.982Z,86.26
2022-10-18T04:48:00.988Z,86.12
2022-10-18T04:49:01.000Z,86.02
2022-10-18T04:50:00.955Z,85.42
2022-10-18T04:51:01.965Z,85.68
2022-10-18T04:52:00.968Z,85.02
2022-10-18T04:53:00.959Z,84.81
2022-10-18T04:54:00.938Z,85.52
2022-10-18T04:55:01.097Z,85.48
2022-10-18T04:56:01.309Z,85.17
2022-10-18T04:57:00.933Z,85.08
2022-10-18T04:58:00.917Z,85.11
2022-10-18T04:59:00.920Z,85.52
2022-10-18T05:00:00.952Z,85.52
2022-10-18T05:01:00.955Z,86.22
2022-10-18T05:02:00.987Z,85.62
2022-10-18T05:03:03.500Z,85.31
2022-10-18T05:04:01.026Z,85.16
2022-10-18T05:05:01.748Z,85.82
2022-10-18T05:06:02.831Z,85.62
2022-10-18T05:07:02.095Z,85.96
2022-10-18T05:08:00.841Z,85.25
2022-10-18T05:09:01.914Z,85.86
2022-10-18T05:10:00.875Z,86.41
2022-10-18T05:11:00.884Z,87.55
2022-10-18T05:12:01.815Z,88.20
2022-10-18T05:13:01.088Z,89.01
2022-10-18T05:14:00.808Z,89.41
2022-10-18T05:15:00.863Z,89.51
2022-10-18T05:16:00.901Z,88.66
2022-10-18T05:17:00.779Z,89.06
2022-10-18T05:18:00.792Z,87.92
2022-10-18T05:19:00.779Z,87.92
2022-10-18T05:20:00.946Z,87.35
2022-10-18T05:21:00.766Z,87.71
2022-10-18T05:22:00.986Z,87.01
2022-10-18T05:23:00.899Z,87.01
2022-10-18T05:24:00.746Z,86.41
2022-10-18T05:25:00.805Z,86.87
2022-10-18T05:26:00.739Z,86.77
2022-10-18T05:27:00.722Z,86.87
2022-10-18T05:28:06.272Z,86.36
2022-10-18T05:29:02.863Z,86.12
2022-10-18T05:30:04.715Z,85.82
2022-10-18T05:31:00.712Z,86.02
2022-10-18T05:32:00.892Z,85.82
2022-10-18T05:33:00.681Z,86.02
2022-10-18T05:34:00.684Z,85.96
2022-10-18T05:35:00.702Z,85.82
2022-10-18T05:36:00.661Z,85.56
2022-10-18T05:37:00.656Z,85.62
2022-10-18T05:38:00.769Z,85.92
2022-10-18T05:39:04.022Z,85.76
2022-10-18T05:40:00.648Z,85.82
2022-10-18T05:41:01.299Z,85.72
2022-10-18T05:42:00.635Z,85.76
2022-10-18T05:43:00.610Z,86.77
2022-10-18T05:44:00.687Z,87.07
2022-10-18T05:45:00.613Z,86.57
2022-10-18T05:46:00.622Z,86.63
2022-10-18T05:47:00.618Z,86.46
2022-10-18T05:48:00.625Z,86.32
2022-10-18T05:49:00.584Z,85.76
2022-10-18T05:50:00.632Z,86.36
2022-10-18T05:51:00.578Z,86.06
2022-10-18T05:52:00.611Z,85.86
2022-10-18T05:53:11.888Z,86.16
2022-10-18T05:54:02.534Z,86.10
2022-10-18T05:55:01.429Z,86.71
2022-10-18T05:56:00.580Z,86.95
2022-10-18T05:57:00.528Z,87.51
2022-10-18T05:58:00.515Z,87.31
2022-10-18T05:59:00.548Z,87.51
2022-10-18T06:00:00.499Z,87.01
2022-10-18T06:01:00.491Z,87.11
2022-10-18T06:02:00.539Z,86.61
2022-10-18T06:03:00.742Z,86.66
2022-10-18T06:04:00.490Z,86.66
2022-10-18T06:05:00.786Z,86.66
2022-10-18T06:06:00.466Z,86.66
2022-10-18T06:07:00.451Z,86.46
2022-10-18T06:08:00.462Z,86.46
2022-10-18T06:09:00.455Z,85.86
2022-10-18T06:10:00.434Z,86.36
2022-10-18T06:11:00.450Z,86.57
2022-10-18T06:12:00.420Z,86.57
2022-10-18T06:13:00.415Z,85.96
2022-10-18T06:14:00.444Z,86.81
2022-10-18T06:15:00.424Z,86.81
2022-10-18T06:16:00.405Z,86.41
2022-10-18T06:17:00.391Z,87.85
2022-10-18T06:18:00.399Z,88.96
2022-10-18T06:19:00.366Z,88.66
2022-10-18T06:20:02.041Z,87.62
2022-10-18T06:21:00.411Z,88.02
2022-10-18T06:22:00.374Z,88.36
2022-10-18T06:23:00.372Z,87.96
2022-10-18T06:24:00.334Z,87.71
2022-10-18T06:25:00.387Z,87.11
2022-10-18T06:26:00.329Z,87.11
2022-10-18T06:27:00.381Z,87.51
2022-10-18T06:28:00.390Z,87.01
2022-10-18T06:29:00.384Z,87.05
2022-10-18T06:30:00.350Z,87.05
2022-10-18T06:31:00.299Z,87.25
2022-10-18T06:32:01.289Z,87.55
2022-10-18T06:33:00.272Z,87.65
2022-10-18T06:34:00.272Z,87.51
2022-10-18T06:35:00.265Z,87.11
2022-10-18T06:36:00.278Z,86.57
2022-10-18T06:37:00.292Z,87.17
2022-10-18T06:38:00.346Z,86.87
2022-10-18T06:39:00.862Z,86.36
2022-10-18T06:40:00.267Z,86.46
2022-10-18T06:41:00.237Z,86.06
2022-10-18T06:42:00.213Z,85.72
2022-10-18T06:43:10.650Z,85.86
2022-10-18T06:44:01.204Z,86.21
2022-10-18T06:45:00.279Z,86.71
2022-10-18T06:46:00.183Z,88.06
2022-10-18T06:47:00.241Z,88.10
2022-10-18T06:48:00.214Z,88.70
2022-10-18T06:49:00.169Z,89.41
2022-10-18T06:50:00.861Z,89.21
2022-10-18T06:51:00.165Z,89.37
2022-10-18T06:52:00.141Z,88.96
2022-10-18T06:53:00.156Z,88.26
2022-10-18T06:54:16.920Z,88.16
2022-10-18T06:55:04.215Z,87.92
2022-10-18T06:56:01.137Z,88.02
2022-10-18T06:57:00.130Z,87.67
2022-10-18T06:58:00.110Z,87.43
2022-10-18T06:59:00.218Z,87.02
2022-10-18T07:00:00.096Z,86.52
2022-10-18T07:01:00.084Z,86.72
2022-10-18T07:02:00.154Z,85.68
2022-10-18T07:03:00.058Z,85.78
2022-10-18T07:04:00.093Z,85.14
2022-10-18T07:05:00.053Z,84.39
2022-10-18T07:06:00.073Z,84.57
2022-10-18T07:07:00.064Z,84.43
2022-10-18T07:08:00.033Z,84.13
2022-10-18T07:09:00.082Z,83.93
2022-10-18T07:10:00.034Z,84.29
2022-10-18T07:11:00.027Z,84.19
2022-10-18T07:12:00.842Z,83.83
2022-10-18T07:13:20.046Z,84.17
2022-10-18T07:14:02.019Z,84.33
2022-10-18T07:15:00.079Z,84.83
2022-10-18T07:16:00.014Z,83.79
2022-10-18T07:16:59.999Z,83.37
2022-10-18T07:17:59.988Z,84.43
2022-10-18T07:18:59.989Z,83.93
2022-10-18T07:19:59.988Z,84.91
2022-10-18T07:20:59.945Z,84.97
2022-10-18T07:21:59.928Z,84.17
2022-10-18T07:22:59.969Z,84.27
2022-10-18T07:23:59.943Z,84.37
2022-10-18T07:25:00.031Z,84.57
2022-10-18T07:25:59.911Z,84.63
2022-10-18T07:26:59.904Z,84.23
2022-10-18T07:27:59.971Z,84.67
2022-10-18T07:28:59.940Z,84.63
2022-10-18T07:29:59.900Z,84.53
2022-10-18T07:31:03.657Z,84.33
2022-10-18T07:32:01.871Z,83.69
2022-10-18T07:32:59.877Z,83.73
2022-10-18T07:33:59.875Z,83.49
2022-10-18T07:35:01.001Z,83.63
2022-10-18T07:35:59.835Z,83.53
2022-10-18T07:36:59.875Z,83.83
2022-10-18T07:37:59.815Z,84.23
2022-10-18T07:38:59.877Z,85.08
2022-10-18T07:39:59.842Z,85.48
2022-10-18T07:40:59.812Z,85.88
2022-10-18T07:41:59.849Z,85.03
2022-10-18T07:43:04.054Z,84.74
2022-10-18T07:44:00.800Z,84.88
2022-10-18T07:44:59.797Z,85.14
2022-10-18T07:45:59.797Z,84.83
2022-10-18T07:46:59.775Z,84.53
2022-10-18T07:47:59.837Z,84.13
2022-10-18T07:48:59.758Z,83.89
2022-10-18T07:49:59.820Z,83.49
2022-10-18T07:50:59.774Z,83.49
2022-10-18T07:51:59.758Z,83.39
2022-10-18T07:52:59.793Z,83.18
2022-10-18T07:53:59.732Z,83.53
2022-10-18T07:54:59.715Z,83.83
2022-10-18T07:56:00.234Z,83.53
2022-10-18T07:56:59.703Z,84.03
2022-10-18T07:57:59.779Z,83.59
2022-10-18T07:58:59.695Z,83.59
2022-10-18T07:59:59.723Z,83.49
2022-10-18T08:00:59.708Z,83.29
2022-10-18T08:01:59.748Z,83.15
2022-10-18T08:02:59.734Z,83.25
2022-10-18T08:04:03.385Z,83.45
2022-10-18T08:05:01.678Z,82.54
2022-10-18T08:05:59.693Z,83.55
2022-10-18T08:06:59.646Z,82.84
2022-10-18T08:08:01.950Z,82.75
2022-10-18T08:08:59.642Z,82.51
2022-10-18T08:09:59.638Z,82.24
2022-10-18T08:10:59.624Z,82.54
2022-10-18T08:11:59.685Z,81.90
2022-10-18T08:12:59.693Z,82.34
2022-10-18T08:13:59.594Z,83.04
2022-10-18T08:14:59.609Z,82.24
2022-10-18T08:15:59.597Z,82.14
2022-10-18T08:16:59.597Z,81.20
2022-10-18T08:17:59.640Z,81.14
2022-10-18T08:18:59.700Z,81.34
2022-10-18T08:20:11.877Z,82.14
2022-10-18T08:21:00.565Z,81.74
2022-10-18T08:21:59.554Z,82.04
2022-10-18T08:23:00.586Z,82.24
2022-10-18T08:24:00.566Z,81.74
2022-10-18T08:24:59.537Z,81.40
2022-10-18T08:25:59.515Z,81.30
2022-10-18T08:26:59.574Z,81.10
2022-10-18T08:27:59.522Z,82.10
2022-10-18T08:29:10.623Z,82.10
2022-10-18T08:30:01.567Z,81.20
2022-10-18T08:30:59.518Z,81.50
2022-10-18T08:31:59.730Z,81.40
2022-10-18T08:32:59.624Z,82.04
2022-10-18T08:33:59.575Z,83.59
2022-10-18T08:34:59.515Z,83.15
2022-10-18T08:35:59.472Z,83.18
2022-10-18T08:36:59.469Z,82.84
2022-10-18T08:37:59.475Z,82.31
2022-10-18T08:38:59.477Z,82.00
2022-10-18T08:39:59.447Z,81.80
2022-10-18T08:40:59.434Z,81.70
2022-10-18T08:41:59.896Z,81.50
2022-10-18T08:42:59.430Z,81.80
2022-10-18T08:44:01.099Z,81.34
2022-10-18T08:45:05.021Z,81.94
2022-10-18T08:46:00.453Z,82.34
2022-10-18T08:46:59.427Z,82.84
2022-10-18T08:47:59.425Z,82.34
2022-10-18T08:48:59.383Z,82.45
2022-10-18T08:49:59.446Z,82.40
2022-10-18T08:50:59.456Z,82.04
2022-10-18T08:51:59.371Z,81.80
2022-10-18T08:52:59.423Z,82.00
2022-10-18T08:53:59.372Z,81.60
2022-10-18T08:54:59.337Z,81.40
2022-10-18T08:55:59.447Z,81.34
2022-10-18T08:56:59.328Z,81.60
2022-10-18T08:57:59.320Z,81.70
2022-10-18T08:58:59.358Z,81.40
2022-10-18T08:59:59.368Z,81.60
2022-10-18T09:00:59.315Z,81.20
2022-10-18T09:01:59.295Z,81.20
2022-10-18T09:02:59.348Z,81.90
2022-10-18T09:03:59.270Z,81.40
2022-10-18T09:05:00.277Z,81.24
2022-10-18T09:05:59.290Z,82.04
2022-10-18T09:06:59.266Z,82.24
2022-10-18T09:07:59.276Z,81.90
2022-10-18T09:08:59.487Z,82.10
2022-10-18T09:09:59.243Z,81.80
2022-10-18T09:10:59.333Z,81.50
2022-10-18T09:12:01.903Z,81.36
2022-10-18T09:13:00.248Z,81.20
2022-10-18T09:13:59.215Z,81.20
2022-10-18T09:14:59.286Z,81.30
2022-10-18T09:15:59.198Z,80.60
2022-10-18T09:17:00.199Z,81.60
2022-10-18T09:17:59.358Z,81.84
2022-10-18T09:18:59.195Z,82.10
2022-10-18T09:20:59.372Z,83.04
2022-10-18T09:21:59.157Z,82.90
2022-10-18T09:22:59.177Z,82.10
2022-10-18T09:23:59.375Z,81.56
2022-10-18T09:24:59.141Z,81.36
2022-10-18T09:25:59.132Z,80.76
2022-10-18T09:26:59.142Z,80.26
2022-10-18T09:27:59.116Z,80.66
2022-10-18T09:28:59.262Z,80.16
2022-10-18T09:29:59.169Z,80.22
2022-10-18T09:30:59.788Z,80.16
2022-10-18T09:31:59.088Z,80.12
2022-10-18T09:32:59.256Z,79.82
2022-10-18T09:33:59.080Z,79.18
2022-10-18T09:34:59.083Z,78.92
2022-10-18T09:35:59.133Z,79.22
2022-10-18T09:36:59.140Z,79.92
2022-10-18T09:37:59.058Z,79.48
2022-10-18T09:39:00.438Z,78.38
2022-10-18T09:39:59.168Z,77.44
2022-10-18T09:40:59.047Z,77.44
2022-10-18T09:41:59.027Z,77.60
2022-10-18T09:42:59.082Z,77.44
2022-10-18T09:43:59.018Z,76.90
2022-10-18T09:44:59.018Z,77.24
2022-10-18T09:45:59.037Z,78.04
2022-10-18T09:46:58.998Z,78.38
2022-10-18T09:47:59.062Z,78.74
2022-10-18T09:48:59.005Z,78.91
2022-10-18T09:49:59.034Z,77.97
2022-10-18T09:50:58.994Z,77.23
2022-10-18T09:51:59.030Z,76.53
2022-10-18T09:52:58.963Z,75.13
2022-10-18T09:53:59.006Z,75.93
2022-10-18T09:54:58.995Z,76.43
2022-10-18T09:55:58.978Z,76.63
2022-10-18T09:56:59.133Z,76.83
2022-10-18T09:57:59.826Z,76.73
2022-10-18T09:58:59.163Z,76.53
2022-10-18T09:59:58.914Z,77.06
2022-10-18T10:00:58.910Z,77.03
2022-10-18T10:01:58.977Z,76.17
2022-10-18T10:02:58.911Z,76.63
2022-10-18T10:03:59.907Z,77.30
2022-10-18T10:04:58.951Z,78.44
2022-10-18T10:05:58.999Z,79.44
2022-10-18T10:06:58.883Z,78.41
2022-10-18T10:07:58.903Z,77.76
2022-10-18T10:08:58.870Z,77.80
2022-10-18T10:09:58.871Z,78.80
2022-10-18T10:10:58.850Z,77.47
2022-10-18T10:11:58.859Z,76.40
2022-10-18T10:12:58.863Z,77.50
2022-10-18T10:13:58.989Z,79.44
2022-10-18T10:14:58.851Z,78.64
2022-10-18T10:15:58.895Z,78.84
2022-10-18T10:16:59.761Z,79.44
2022-10-18T10:17:59.835Z,78.24
2022-10-18T10:18:58.830Z,79.74
2022-10-18T10:19:58.834Z,79.64
2022-10-18T10:20:58.803Z,80.11
2022-10-18T10:21:58.802Z,79.06
2022-10-18T10:22:58.799Z,77.13
2022-10-18T10:23:58.815Z,76.63
2022-10-18T10:24:58.799Z,76.33
2022-10-18T10:25:58.859Z,75.52
2022-10-18T10:26:59.883Z,74.53
2022-10-18T10:27:58.858Z,75.39
2022-10-18T10:28:58.792Z,74.99
2022-10-18T10:30:01.526Z,74.89
2022-10-18T10:31:00.875Z,75.49
2022-10-18T10:31:58.813Z,74.26
2022-10-18T10:32:58.775Z,74.05
2022-10-18T10:33:59.434Z,73.59
2022-10-18T10:34:58.773Z,74.29
2022-10-18T10:35:58.734Z,73.72
2022-10-18T10:37:31.533Z,74.73
2022-10-18T10:37:58.710Z,74.59
2022-10-18T10:38:58.706Z,74.22
2022-10-18T10:40:17.238Z,71.79
2022-10-18T10:41:00.687Z,69.89
2022-10-18T10:41:58.698Z,71.36
2022-10-18T10:43:08.855Z,73.22
2022-10-18T10:44:00.682Z,73.63
2022-10-18T10:44:58.663Z,73.33
2022-10-18T10:45:58.670Z,72.19
2022-10-18T10:46:58.646Z,71.96
2022-10-18T10:47:58.656Z,72.09
2022-10-18T10:49:21.055Z,72.89
2022-10-18T10:50:00.643Z,73.89
2022-10-18T10:50:58.653Z,73.22
2022-10-18T10:52:08.573Z,74.13
2022-10-18T10:52:59.647Z,74.29
2022-10-18T10:53:58.610Z,73.02
2022-10-18T10:55:06.090Z,72.35
2022-10-18T10:56:00.634Z,70.53
2022-10-18T10:56:58.570Z,70.09
2022-10-18T10:57:58.586Z,69.79
2022-10-18T10:58:58.650Z,70.42
2022-10-18T10:59:58.577Z,70.69
2022-10-18T11:00:58.670Z,71.36
2022-10-18T11:01:58.575Z,70.23
2022-10-18T11:03:06.061Z,69.79
2022-10-18T11:04:00.562Z,66.22
2022-10-18T11:04:58.617Z,60.74
2022-10-18T11:05:58.520Z,60.86
2022-10-18T11:06:58.509Z,61.69
2022-10-18T11:07:58.492Z,62.15
2022-10-18T11:08:58.500Z,60.17
2022-10-18T11:09:58.521Z,57.88
2022-10-18T11:10:58.530Z,55.13
2022-10-18T11:11:58.472Z,54.21
2022-10-18T11:12:58.489Z,51.64
2022-10-18T11:14:13.601Z,49.92
2022-10-18T11:15:00.478Z,49.77
2022-10-18T11:15:58.471Z,50.19
2022-10-18T11:16:58.501Z,51.30
2022-10-18T11:17:58.449Z,55.05
2022-10-18T11:18:58.436Z,59.62
2022-10-18T11:19:58.488Z,60.33
2022-10-18T11:20:58.431Z,64.52
2022-10-18T11:21:58.415Z,65.05
2022-10-18T11:22:58.405Z,65.75
2022-10-18T11:23:58.472Z,62.26
2022-10-18T11:24:58.396Z,60.93
2022-10-18T11:25:58.387Z,61.94
2022-10-18T11:26:58.383Z,62.40
2022-10-18T11:27:58.367Z,63.85
2022-10-18T11:28:58.407Z,65.31
2022-10-18T11:29:58.367Z,66.83
2022-10-18T11:30:58.395Z,67.20
2022-10-18T11:31:58.352Z,67.10
2022-10-18T11:32:58.348Z,69.92
2022-10-18T11:34:08.611Z,69.82
2022-10-18T11:35:00.371Z,67.13
2022-10-18T11:36:03.566Z,67.90
2022-10-18T11:37:25.962Z,70.49
2022-10-18T11:38:00.887Z,71.16
2022-10-18T11:38:58.347Z,71.86
2022-10-18T11:39:58.309Z,71.42
2022-10-18T11:40:58.304Z,72.02
2022-10-18T11:41:58.295Z,71.39
2022-10-18T11:42:58.284Z,71.56
2022-10-18T11:44:02.529Z,70.39
2022-10-18T11:44:59.340Z,66.25
2022-10-18T11:45:58.316Z,60.08
2022-10-18T11:46:59.244Z,54.90
2022-10-18T11:47:58.287Z,54.41
2022-10-18T11:48:58.236Z,54.38
2022-10-18T11:49:58.219Z,52.66
2022-10-18T11:50:59.244Z,52.61
2022-10-18T11:52:07.875Z,50.59
2022-10-18T11:53:00.220Z,51.20
2022-10-18T11:53:58.223Z,51.59
2022-10-18T11:54:58.187Z,48.42
2022-10-18T11:55:58.240Z,54.28
2022-10-18T11:56:58.187Z,52.04
2022-10-18T11:57:58.221Z,49.70
2022-10-18T11:58:58.271Z,51.67
2022-10-18T11:59:58.187Z,53.55
2022-10-18T12:00:58.219Z,53.55
2022-10-18T12:01:58.171Z,55.06
2022-10-18T12:02:58.206Z,57.65
2022-10-18T12:03:58.163Z,62.19
2022-10-18T12:06:00.178Z,63.16
2022-10-18T12:06:58.161Z,61.05
2022-10-18T12:07:58.154Z,56.55
2022-10-18T12:08:58.135Z,54.46
2022-10-18T12:09:58.133Z,54.24
2022-10-18T12:11:06.250Z,53.27
2022-10-18T12:12:00.162Z,50.93
2022-10-18T12:12:58.123Z,50.68
2022-10-18T12:13:58.115Z,52.95
2022-10-18T12:14:58.118Z,54.91
2022-10-18T12:15:58.107Z,57.40
2022-10-18T12:17:20.313Z,59.86
2022-10-18T12:18:00.091Z,61.80
2022-10-18T12:18:58.111Z,63.13
2022-10-18T12:19:58.103Z,64.25
2022-10-18T12:20:58.079Z,64.85
2022-10-18T12:21:58.181Z,65.88
2022-10-18T12:22:58.099Z,66.97
2022-10-18T12:23:58.143Z,68.16
2022-10-18T12:24:58.052Z,70.32
2022-10-18T12:25:58.055Z,71.29
2022-10-18T12:26:58.083Z,73.02
2022-10-18T12:27:58.101Z,73.36
2022-10-18T12:28:58.109Z,72.86
2022-10-18T12:29:58.059Z,71.83
2022-10-18T12:30:58.064Z,71.45
2022-10-18T12:31:58.019Z,71.45
2022-10-18T12:33:09.948Z,70.12
2022-10-18T12:34:00.779Z,71.22
2022-10-18T12:34:58.026Z,69.79
2022-10-18T12:35:57.999Z,70.16
2022-10-18T12:36:58.051Z,68.93
2022-10-18T12:37:57.991Z,68.43
2022-10-18T12:38:58.006Z,67.93
2022-10-18T12:40:09.848Z,67.83
2022-10-18T12:40:59.987Z,68.16
2022-10-18T12:41:57.939Z,67.57
2022-10-18T12:42:57.957Z,68.49
2022-10-18T12:43:57.959Z,69.92
2022-10-18T12:44:57.954Z,70.03
2022-10-18T12:45:57.947Z,69.76
2022-10-18T12:46:57.929Z,70.23
2022-10-18T12:47:57.947Z,70.32
2022-10-18T12:48:57.968Z,70.42
2022-10-18T12:49:57.903Z,71.26
2022-10-18T12:50:57.920Z,73.06
2022-10-18T12:51:57.938Z,73.79
2022-10-18T12:52:57.914Z,74.69
2022-10-18T12:53:57.903Z,75.59
2022-10-18T12:54:57.898Z,75.33
2022-10-18T12:55:57.876Z,75.67